Time;durP1;ratioP1;P1;durP2;ratioP2;P2;SDS_P1;SDS_P2;PMS_P1;PMS_P2;Temp;Humidity;BMP_temperature;BMP_pressure;BME280_temperature;BME280_humidity;BME280_pressure;Samples;Min_cycle;Max_cycle;Signal;HPM_P1;HPM_P2
2021/03/02 00:01:42;;;;;;;88.05;29.52;;;4.80;99.90;;;;;;5044157;28;20055;-84
2021/03/02 00:04:09;;;;;;;93.40;33.17;;;4.80;99.90;;;;;;5081832;28;20399;-85
2021/03/02 00:06:35;;;;;;;96.07;31.10;;;4.80;99.90;;;;;;5072415;28;20400;-85
2021/03/02 00:09:01;;;;;;;107.85;31.80;;;4.70;99.90;;;;;;5050701;28;20404;-85
2021/03/02 00:11:28;;;;;;;103.13;32.85;;;4.80;99.90;;;;;;5088722;28;20036;-88
2021/03/02 00:13:54;;;;;;;100.18;32.30;;;4.80;99.90;;;;;;5083650;28;20128;-85
2021/03/02 00:16:24;;;;;;;100.88;31.70;;;4.80;99.90;;;;;;5073064;28;20127;-85
2021/03/02 00:18:55;;;;;;;109.05;33.20;;;4.70;99.90;;;;;;5090745;28;20517;-85
2021/03/02 00:21:29;;;;;;;95.68;32.63;;;4.70;99.90;;;;;;5076050;28;20131;-86
2021/03/02 00:24:01;;;;;;;82.88;28.92;;;4.80;99.90;;;;;;5090274;28;20040;-85
2021/03/02 00:26:31;;;;;;;84.68;30.40;;;4.80;99.90;;;;;;5084653;28;20097;-89
2021/03/02 00:29:03;;;;;;;66.45;26.63;;;4.80;99.90;;;;;;5090492;28;20063;-85
2021/03/02 00:31:34;;;;;;;76.53;28.23;;;4.80;99.90;;;;;;5088858;28;20036;-88
2021/03/02 00:34:00;;;;;;;85.93;28.40;;;4.70;99.90;;;;;;5089884;28;20109;-85
2021/03/02 00:36:26;;;;;;;85.20;29.45;;;4.70;99.90;;;;;;5088628;28;20454;-88
2021/03/02 00:38:52;;;;;;;76.22;28.80;;;4.60;99.90;;;;;;5089188;28;20052;-85
2021/03/02 00:41:18;;;;;;;81.03;30.52;;;4.60;99.90;;;;;;5090941;28;20068;-85
2021/03/02 00:43:44;;;;;;;105.72;32.05;;;4.60;99.90;;;;;;5083151;28;20102;-85
2021/03/02 00:46:10;;;;;;;113.03;34.45;;;4.60;99.90;;;;;;5083660;28;20503;-85
2021/03/02 00:48:36;;;;;;;114.82;33.65;;;4.50;99.90;;;;;;5058444;28;20032;-85
2021/03/02 00:51:02;;;;;;;88.68;30.75;;;4.50;99.90;;;;;;5072889;28;20036;-85
2021/03/02 00:53:28;;;;;;;111.88;31.05;;;4.60;99.90;;;;;;5085233;28;20037;-89
2021/03/02 00:55:54;;;;;;;130.20;34.30;;;4.60;99.90;;;;;;5069361;28;20037;-85
2021/03/02 00:58:19;;;;;;;122.80;33.28;;;4.60;99.90;;;;;;5065385;28;20052;-85
2021/03/02 01:00:45;;;;;;;92.30;29.95;;;4.60;99.90;;;;;;5074438;28;20040;-86
2021/03/02 01:03:11;;;;;;;85.75;29.75;;;4.60;99.90;;;;;;5088041;28;20039;-84
2021/03/02 01:05:37;;;;;;;126.97;33.28;;;4.50;99.90;;;;;;5087384;28;20400;-84
2021/03/02 01:08:04;;;;;;;112.38;32.97;;;4.40;99.90;;;;;;5092886;28;20051;-85
2021/03/02 01:10:30;;;;;;;85.72;30.75;;;4.40;99.90;;;;;;5075386;28;20264;-87
2021/03/02 01:12:56;;;;;;;147.88;32.53;;;4.40;99.90;;;;;;5091689;28;20475;-85
2021/03/02 01:15:22;;;;;;;138.82;28.02;;;4.50;99.90;;;;;;5110782;28;20050;-85
2021/03/02 01:17:48;;;;;;;115.32;28.30;;;4.50;99.90;;;;;;5077289;28;20495;-85
2021/03/02 01:20:14;;;;;;;167.18;30.67;;;4.40;99.90;;;;;;5066764;28;20050;-85
2021/03/02 01:22:39;;;;;;;219.65;34.17;;;4.50;99.90;;;;;;5106790;28;20059;-85
2021/03/02 01:25:10;;;;;;;184.10;32.33;;;4.40;99.90;;;;;;5096213;28;20043;-85
2021/03/02 01:27:36;;;;;;;135.82;30.05;;;4.40;99.90;;;;;;5091736;28;20483;-85
2021/03/02 01:30:08;;;;;;;196.43;34.63;;;4.40;99.90;;;;;;5092472;28;20054;-85
2021/03/02 01:32:33;;;;;;;100.18;31.98;;;4.40;99.90;;;;;;5088301;28;20088;-87
2021/03/02 01:34:59;;;;;;;104.70;32.30;;;4.40;99.90;;;;;;5092188;28;20047;-84
2021/03/02 01:37:25;;;;;;;112.75;30.77;;;4.30;99.90;;;;;;5071655;28;20074;-84
2021/03/02 01:39:51;;;;;;;108.53;33.70;;;4.30;99.90;;;;;;5086982;28;20039;-84
2021/03/02 01:42:16;;;;;;;103.47;32.22;;;4.30;99.90;;;;;;5076223;28;20071;-84
2021/03/02 01:44:43;;;;;;;105.03;33.78;;;4.30;99.90;;;;;;5095502;28;20093;-83
2021/03/02 01:47:08;;;;;;;99.40;33.38;;;4.20;99.90;;;;;;5114125;28;20070;-84
2021/03/02 01:49:34;;;;;;;94.22;31.40;;;4.20;99.90;;;;;;5096080;28;20094;-89
2021/03/02 01:52:00;;;;;;;108.38;34.42;;;4.20;99.90;;;;;;5114296;28;20098;-84
2021/03/02 01:54:26;;;;;;;135.35;36.25;;;4.20;99.90;;;;;;5079481;28;20707;-83
2021/03/02 01:56:52;;;;;;;130.88;36.38;;;4.10;99.90;;;;;;5075598;28;20682;-85
2021/03/02 01:59:19;;;;;;;123.50;36.63;;;4.10;99.90;;;;;;5079073;28;20071;-84
2021/03/02 02:01:45;;;;;;;172.25;42.83;;;4.20;99.90;;;;;;5086142;28;20047;-84
2021/03/02 02:04:36;;;;;;;173.13;42.55;;;4.10;99.90;;;;;;5101899;28;20048;-86
2021/03/02 02:07:18;;;;;;;149.30;39.00;;;4.10;99.90;;;;;;5108558;28;20048;-84
2021/03/02 02:10:01;;;;;;;126.22;38.05;;;4.10;99.90;;;;;;5109639;28;20040;-83
2021/03/02 02:12:39;;;;;;;112.70;34.45;;;4.10;99.90;;;;;;5092645;28;20491;-84
2021/03/02 02:15:22;;;;;;;139.18;38.78;;;4.10;99.90;;;;;;5103379;28;20039;-84
2021/03/02 02:17:53;;;;;;;135.43;36.92;;;4.10;99.90;;;;;;5094506;28;20035;-83
2021/03/02 02:20:45;;;;;;;125.47;37.05;;;4.10;99.90;;;;;;5113836;28;20095;-84
2021/03/02 02:23:42;;;;;;;168.50;38.97;;;4.00;99.90;;;;;;5081637;28;20126;-85
2021/03/02 02:26:26;;;;;;;139.23;38.25;;;4.00;99.90;;;;;;5081254;28;20475;-83
2021/03/02 02:28:53;;;;;;;140.50;38.25;;;4.00;99.90;;;;;;5112461;28;20035;-84
2021/03/02 02:31:21;;;;;;;126.15;34.75;;;4.00;99.90;;;;;;5093081;28;20054;-84
2021/03/02 02:33:50;;;;;;;114.35;35.42;;;4.00;99.90;;;;;;5094327;28;20518;-84
2021/03/02 02:36:17;;;;;;;94.25;31.52;;;3.90;99.90;;;;;;5112820;28;20047;-84
2021/03/02 02:38:47;;;;;;;110.50;33.92;;;3.90;99.90;;;;;;5094461;28;20039;-83
2021/03/02 02:41:14;;;;;;;76.43;28.38;;;4.00;99.90;;;;;;5112602;28;20046;-83
2021/03/02 02:43:41;;;;;;;84.88;29.50;;;3.90;99.90;;;;;;5077895;28;20051;-88
2021/03/02 02:46:07;;;;;;;66.82;27.83;;;3.90;99.90;;;;;;5087902;28;20071;-84
2021/03/02 02:48:33;;;;;;;64.68;26.95;;;3.90;99.90;;;;;;5094430;28;20040;-83
2021/03/02 02:50:59;;;;;;;77.00;27.73;;;3.90;99.90;;;;;;5086232;28;20046;-85
2021/03/02 02:53:25;;;;;;;68.55;26.77;;;3.80;99.90;;;;;;5110789;28;20039;-84
2021/03/02 02:56:02;;;;;;;57.30;24.90;;;3.90;99.90;;;;;;5077697;28;20130;-85
2021/03/02 02:58:52;;;;;;;70.57;25.33;;;3.90;99.90;;;;;;5094830;28;20470;-84
2021/03/02 03:01:19;;;;;;;62.55;23.75;;;3.90;99.90;;;;;;5107181;28;20527;-85
2021/03/02 03:03:47;;;;;;;53.42;23.33;;;3.90;99.90;;;;;;5088156;28;20468;-84
2021/03/02 03:06:16;;;;;;;63.85;24.08;;;3.80;99.90;;;;;;5103705;28;20382;-84
2021/03/02 03:08:49;;;;;;;56.33;23.33;;;3.90;99.90;;;;;;5077058;28;20047;-88
2021/03/02 03:11:18;;;;;;;68.38;24.83;;;3.80;99.90;;;;;;5076924;28;20293;-85
2021/03/02 03:13:46;;;;;;;54.85;22.92;;;3.80;99.90;;;;;;5086676;28;20032;-84
2021/03/02 03:16:13;;;;;;;54.00;24.50;;;3.80;99.90;;;;;;5112725;28;20044;-84
2021/03/02 03:18:59;;;;;;;59.38;26.10;;;3.80;99.90;;;;;;5057680;28;20048;-85
2021/03/02 03:21:26;;;;;;;67.65;26.55;;;3.80;99.90;;;;;;5060118;28;20043;-84
2021/03/02 03:23:52;;;;;;;72.93;24.00;;;3.80;99.90;;;;;;5076799;28;20039;-84
2021/03/02 03:26:23;;;;;;;83.13;27.52;;;3.80;99.90;;;;;;5110014;28;20047;-86
2021/03/02 03:28:51;;;;;;;67.25;26.27;;;3.80;99.90;;;;;;5093565;28;20058;-84
2021/03/02 03:31:18;;;;;;;62.22;25.52;;;3.80;99.90;;;;;;5093846;28;20046;-84
2021/03/02 03:33:46;;;;;;;80.95;26.63;;;3.70;99.90;;;;;;5093753;28;20105;-87
2021/03/02 03:36:12;;;;;;;77.15;27.15;;;3.70;99.90;;;;;;5093633;28;20040;-84
2021/03/02 03:38:38;;;;;;;71.45;28.42;;;3.70;99.90;;;;;;5111562;28;20076;-85
2021/03/02 03:41:04;;;;;;;77.57;28.45;;;3.80;99.90;;;;;;5110514;28;20035;-84
2021/03/02 03:43:30;;;;;;;79.22;28.85;;;3.70;99.90;;;;;;5096164;28;20051;-85
2021/03/02 03:45:56;;;;;;;69.00;27.48;;;3.60;99.90;;;;;;5111190;28;20446;-83
2021/03/02 03:48:25;;;;;;;67.90;26.38;;;3.70;99.90;;;;;;5093772;28;20035;-84
2021/03/02 03:50:51;;;;;;;157.30;29.08;;;3.70;99.90;;;;;;5090406;28;20403;-85
2021/03/02 03:53:20;;;;;;;90.85;27.30;;;3.70;99.90;;;;;;5075404;28;20043;-84
2021/03/02 03:55:48;;;;;;;85.03;26.13;;;3.70;99.90;;;;;;5093738;28;20044;-89
2021/03/02 03:58:19;;;;;;;92.93;26.10;;;3.60;99.90;;;;;;5110897;28;20047;-87
2021/03/02 04:00:51;;;;;;;91.13;28.23;;;3.60;99.90;;;;;;5081543;28;20043;-88
2021/03/02 04:03:19;;;;;;;91.82;29.33;;;3.60;99.90;;;;;;5105774;28;20036;-85
2021/03/02 04:05:46;;;;;;;88.30;28.85;;;3.50;99.90;;;;;;5093195;28;20035;-88
2021/03/02 04:08:13;;;;;;;106.00;28.98;;;3.60;99.90;;;;;;5112090;28;20051;-85
2021/03/02 04:10:41;;;;;;;85.13;28.52;;;3.60;99.90;;;;;;5094034;28;20039;-85
2021/03/02 04:13:14;;;;;;;107.97;33.63;;;3.60;99.90;;;;;;5108224;28;20043;-83
2021/03/02 04:15:43;;;;;;;90.88;32.83;;;3.50;99.90;;;;;;5076958;28;20423;-84
2021/03/02 04:18:11;;;;;;;94.93;31.13;;;3.50;99.90;;;;;;5110858;28;20035;-83
2021/03/02 04:20:37;;;;;;;108.32;35.33;;;3.40;99.90;;;;;;5110851;28;20388;-83
2021/03/02 04:23:03;;;;;;;116.47;34.13;;;3.40;99.90;;;;;;5092093;28;20044;-83
2021/03/02 04:25:30;;;;;;;117.32;33.90;;;3.40;99.90;;;;;;5076092;28;20487;-84
2021/03/02 04:27:56;;;;;;;157.05;34.60;;;3.40;99.90;;;;;;5072547;28;20086;-83
2021/03/02 04:30:22;;;;;;;149.93;33.92;;;3.40;99.90;;;;;;5110237;28;20039;-85
2021/03/02 04:32:48;;;;;;;229.45;35.17;;;3.40;99.90;;;;;;5073929;28;20063;-87
2021/03/02 04:35:14;;;;;;;172.80;35.97;;;3.40;99.90;;;;;;5075736;28;20071;-85
2021/03/02 04:37:40;;;;;;;190.60;42.67;;;3.40;99.90;;;;;;5062840;28;20067;-83
2021/03/02 04:40:07;;;;;;;172.25;46.17;;;3.30;99.90;;;;;;5071943;28;20064;-86
2021/03/02 04:42:33;;;;;;;162.90;43.38;;;3.30;99.90;;;;;;5073312;28;20040;-84
2021/03/02 04:44:59;;;;;;;298.35;45.53;;;3.30;99.90;;;;;;5090520;28;20040;-84
2021/03/02 04:47:25;;;;;;;120.07;36.85;;;3.20;99.90;;;;;;5101104;28;20051;-84
2021/03/02 04:49:51;;;;;;;125.70;32.88;;;3.40;99.90;;;;;;5093451;28;20044;-85
2021/03/02 04:52:17;;;;;;;112.93;31.83;;;3.30;99.90;;;;;;5057161;28;20048;-84
2021/03/02 04:54:44;;;;;;;100.90;28.75;;;3.30;99.90;;;;;;5078582;28;20506;-84
2021/03/02 04:57:10;;;;;;;142.38;29.10;;;3.30;99.90;;;;;;5090050;28;20123;-86
2021/03/02 04:59:36;;;;;;;101.22;26.02;;;3.30;99.90;;;;;;5085323;28;20127;-85
2021/03/02 05:02:01;;;;;;;71.03;24.77;;;3.30;99.90;;;;;;5073125;28;20380;-84
2021/03/02 05:04:28;;;;;;;145.15;24.65;;;3.20;99.90;;;;;;5073664;28;20040;-84
2021/03/02 05:06:53;;;;;;;120.20;23.25;;;3.20;99.90;;;;;;5088890;28;20676;-84
2021/03/02 05:09:19;;;;;;;88.05;23.35;;;3.20;99.90;;;;;;5110567;28;20112;-84
2021/03/02 05:11:45;;;;;;;92.63;21.33;;;3.20;99.90;;;;;;5092928;28;20146;-84
2021/03/02 05:14:11;;;;;;;86.07;20.00;;;3.20;99.90;;;;;;5109413;28;20126;-84
2021/03/02 05:16:37;;;;;;;107.55;23.05;;;3.20;99.90;;;;;;5091699;28;20063;-84
2021/03/02 05:19:03;;;;;;;72.72;20.58;;;3.10;99.90;;;;;;5071718;28;20048;-84
2021/03/02 05:21:29;;;;;;;89.70;22.38;;;3.10;99.90;;;;;;5110310;28;20040;-84
2021/03/02 05:23:55;;;;;;;141.55;23.92;;;3.10;99.90;;;;;;5074654;28;20047;-84
2021/03/02 05:26:23;;;;;;;143.70;24.67;;;3.10;99.90;;;;;;5110203;28;20035;-84
2021/03/02 05:28:50;;;;;;;96.90;23.00;;;3.10;99.90;;;;;;5067392;28;20403;-88
2021/03/02 05:31:16;;;;;;;188.90;25.15;;;3.10;99.90;;;;;;5088278;28;20067;-84
2021/03/02 05:33:42;;;;;;;143.00;25.10;;;3.00;99.90;;;;;;5110406;28;20035;-84
2021/03/02 05:36:11;;;;;;;118.75;24.45;;;3.00;99.90;;;;;;5109289;28;20580;-84
2021/03/02 05:38:37;;;;;;;134.30;24.10;;;3.00;99.90;;;;;;5055004;28;20044;-84
2021/03/02 05:41:03;;;;;;;176.93;23.60;;;3.00;99.90;;;;;;5103055;28;20411;-84
2021/03/02 05:43:30;;;;;;;181.50;25.50;;;3.00;99.90;;;;;;5106376;28;20388;-84
2021/03/02 05:45:56;;;;;;;167.00;24.75;;;2.90;99.90;;;;;;5066521;28;20040;-84
2021/03/02 05:48:26;;;;;;;117.28;24.52;;;3.00;99.90;;;;;;5071876;28;20083;-85
2021/03/02 05:50:54;;;;;;;141.45;26.75;;;2.90;99.90;;;;;;5066817;28;20039;-88
2021/03/02 05:53:20;;;;;;;264.98;31.73;;;2.90;99.90;;;;;;5092273;28;20051;-84
2021/03/02 05:55:46;;;;;;;150.25;29.38;;;2.90;99.90;;;;;;5091536;28;20073;-84
2021/03/02 05:58:16;;;;;;;152.63;29.42;;;3.00;99.90;;;;;;5108991;28;20035;-85
2021/03/02 06:00:42;;;;;;;167.30;29.70;;;2.90;99.90;;;;;;5096956;28;20044;-87
2021/03/02 06:03:10;;;;;;;170.45;32.60;;;2.90;99.90;;;;;;5071192;28;20044;-83
2021/03/02 06:05:37;;;;;;;197.52;35.30;;;2.90;99.90;;;;;;5089355;28;20035;-84
2021/03/02 06:08:06;;;;;;;183.82;36.58;;;2.90;99.90;;;;;;5087986;28;20160;-84
2021/03/02 06:10:33;;;;;;;247.68;38.10;;;2.80;99.90;;;;;;5073603;28;20048;-83
2021/03/02 06:13:00;;;;;;;148.15;33.95;;;2.80;99.90;;;;;;5108641;28;20052;-84
2021/03/02 06:15:34;;;;;;;216.20;38.22;;;2.80;99.90;;;;;;5060663;28;20395;-84
2021/03/02 06:18:16;;;;;;;245.63;38.47;;;2.80;99.90;;;;;;5094858;28;20043;-84
2021/03/02 06:20:43;;;;;;;160.90;35.38;;;2.80;99.90;;;;;;5090435;28;20039;-84
2021/03/02 06:23:22;;;;;;;238.82;31.15;;;2.80;99.90;;;;;;5086117;28;20089;-83
2021/03/02 06:25:48;;;;;;;184.50;27.05;;;2.90;99.90;;;;;;5108979;28;20506;-84
2021/03/02 06:28:30;;;;;;;208.73;28.25;;;2.90;99.90;;;;;;5104402;28;20394;-84
2021/03/02 06:31:01;;;;;;;316.55;30.92;;;2.80;99.90;;;;;;5109507;28;20089;-85
2021/03/02 06:33:26;;;;;;;274.05;33.28;;;2.90;99.90;;;;;;5113316;28;20035;-86
2021/03/02 06:35:52;;;;;;;208.27;28.45;;;2.80;99.90;;;;;;5093753;28;20097;-83
2021/03/02 06:38:32;;;;;;;228.70;31.27;;;2.80;99.90;;;;;;5111552;28;20051;-85
2021/03/02 06:41:02;;;;;;;191.23;30.33;;;2.80;99.90;;;;;;5075325;28;20051;-87
2021/03/02 06:43:33;;;;;;;242.40;31.70;;;2.80;99.90;;;;;;5076471;28;20046;-84
2021/03/02 06:46:01;;;;;;;166.52;30.33;;;2.80;99.90;;;;;;5110667;28;20031;-87
2021/03/02 06:48:30;;;;;;;217.80;29.60;;;2.80;99.90;;;;;;5072696;28;20135;-84
2021/03/02 06:50:56;;;;;;;171.60;26.88;;;2.80;99.90;;;;;;5096782;28;20044;-89
2021/03/02 06:53:22;;;;;;;333.13;29.90;;;2.80;99.90;;;;;;5053479;28;20377;-83
2021/03/02 06:55:48;;;;;;;221.48;28.38;;;2.80;99.90;;;;;;5091195;28;20046;-84
2021/03/02 06:58:20;;;;;;;136.18;28.20;;;2.80;99.90;;;;;;5075564;28;20039;-83
2021/03/02 07:00:54;;;;;;;137.45;27.02;;;2.80;99.90;;;;;;5087462;28;20150;-83
2021/03/02 07:03:31;;;;;;;198.52;28.65;;;2.90;99.90;;;;;;5075955;28;20165;-83
2021/03/02 07:06:02;;;;;;;200.77;28.00;;;2.90;99.90;;;;;;5094337;28;20040;-86
2021/03/02 07:08:28;;;;;;;115.32;27.15;;;2.90;99.90;;;;;;5075945;28;20039;-84
2021/03/02 07:10:54;;;;;;;297.90;31.77;;;3.00;99.90;;;;;;5108061;28;20040;-83
2021/03/02 07:13:22;;;;;;;156.80;28.35;;;2.90;99.90;;;;;;5089666;28;20039;-83
2021/03/02 07:15:51;;;;;;;122.40;29.30;;;3.00;99.90;;;;;;5109824;28;20126;-83
2021/03/02 07:18:19;;;;;;;184.30;26.88;;;2.90;99.90;;;;;;5091380;28;20483;-83
2021/03/02 07:20:50;;;;;;;121.93;25.30;;;2.90;99.90;;;;;;5094284;28;20036;-83
2021/03/02 07:23:21;;;;;;;161.95;23.85;;;3.00;99.90;;;;;;5090313;28;20035;-85
2021/03/02 07:25:48;;;;;;;;;;;3.00;99.90;;;;;;5094174;28;20122;-83
2021/03/02 07:28:16;;;;;;;160.48;19.85;;;3.00;99.90;;;;;;5091878;28;19951;-83
2021/03/02 07:30:45;;;;;;;85.78;17.35;;;3.00;99.90;;;;;;5091689;28;20043;-84
2021/03/02 07:33:11;;;;;;;119.90;19.92;;;3.10;99.90;;;;;;5068013;28;20036;-84
2021/03/02 07:35:38;;;;;;;174.82;20.13;;;3.20;99.90;;;;;;5076749;28;20059;-83
2021/03/02 07:38:21;;;;;;;122.90;20.30;;;3.10;99.90;;;;;;5092566;28;20047;-87
2021/03/02 07:40:55;;;;;;;82.28;20.80;;;3.10;99.90;;;;;;5111334;28;20085;-85
2021/03/02 07:43:28;;;;;;;95.10;19.92;;;3.20;99.90;;;;;;5077285;28;20040;-83
2021/03/02 07:45:57;;;;;;;93.60;19.67;;;3.30;99.90;;;;;;5090678;28;20040;-83
2021/03/02 07:48:28;;;;;;;134.10;18.83;;;3.20;99.90;;;;;;5108222;28;20044;-83
2021/03/02 07:51:15;;;;;;;57.58;18.35;;;3.30;99.90;;;;;;5092096;28;20458;-86
2021/03/02 07:53:42;;;;;;;81.30;18.50;;;3.30;99.90;;;;;;5110097;28;20380;-83
2021/03/02 07:56:15;;;;;;;79.57;20.10;;;3.30;99.90;;;;;;5072612;28;20043;-84
2021/03/02 07:58:42;;;;;;;72.78;19.63;;;3.40;99.90;;;;;;5084413;28;20050;-84
2021/03/02 08:01:22;;;;;;;87.32;20.60;;;3.40;99.90;;;;;;5084156;28;20181;-85
2021/03/02 08:03:49;;;;;;;60.03;20.58;;;3.50;99.90;;;;;;5090518;28;20078;-86
2021/03/02 08:06:21;;;;;;;56.58;22.00;;;3.50;99.90;;;;;;5090711;28;20043;-86
2021/03/02 08:08:48;;;;;;;73.95;23.05;;;3.60;99.90;;;;;;5108578;28;20051;-85
2021/03/02 08:11:36;;;;;;;78.13;23.23;;;3.60;99.90;;;;;;5108368;28;20077;-86
2021/03/02 08:14:17;;;;;;;56.65;22.50;;;3.50;99.90;;;;;;5108749;28;20044;-85
2021/03/02 08:16:57;;;;;;;57.25;23.23;;;3.50;99.90;;;;;;5088018;28;20039;-86
2021/03/02 08:19:41;;;;;;;55.22;21.92;;;3.50;99.90;;;;;;5088063;28;20051;-86
2021/03/02 08:22:23;;;;;;;61.35;21.98;;;3.60;99.90;;;;;;5082500;28;20048;-88
2021/03/02 08:24:58;;;;;;;71.30;22.10;;;3.60;99.90;;;;;;5092825;28;20036;-85
2021/03/02 08:27:57;;;;;;;53.10;20.38;;;3.50;99.90;;;;;;5090259;28;20474;-85
2021/03/02 08:30:31;;;;;;;42.08;20.23;;;3.70;99.90;;;;;;5089608;28;20128;-85
2021/03/02 08:32:59;;;;;;;41.08;20.23;;;3.80;99.90;;;;;;5101874;28;20148;-86
2021/03/02 08:35:31;;;;;;;50.35;20.88;;;3.80;99.90;;;;;;5106649;28;20032;-86
2021/03/02 08:38:05;;;;;;;45.60;20.00;;;3.90;99.90;;;;;;5084151;28;20044;-88
2021/03/02 08:40:31;;;;;;;41.08;21.65;;;3.90;99.90;;;;;;5091774;28;20061;-87
2021/03/02 08:43:08;;;;;;;41.75;20.15;;;3.90;99.90;;;;;;5105480;28;20120;-85
2021/03/02 08:45:36;;;;;;;42.83;22.33;;;4.10;99.90;;;;;;5088518;28;20392;-85
2021/03/02 08:48:18;;;;;;;47.65;21.27;;;4.00;99.90;;;;;;5105256;28;20040;-85
2021/03/02 08:50:45;;;;;;;44.47;19.45;;;4.00;99.90;;;;;;5106238;28;20429;-84
2021/03/02 08:53:31;;;;;;;44.03;21.83;;;4.10;99.90;;;;;;5081955;28;20487;-84
2021/03/02 08:55:58;;;;;;;46.55;21.55;;;4.30;99.90;;;;;;5091029;28;20100;-84
2021/03/02 08:58:32;;;;;;;50.67;21.27;;;4.40;99.90;;;;;;5090490;28;20503;-85
2021/03/02 09:01:04;;;;;;;50.03;21.50;;;4.40;99.90;;;;;;5086676;28;20092;-84
2021/03/02 09:03:30;;;;;;;47.08;21.15;;;4.50;99.90;;;;;;5105163;28;20210;-84
2021/03/02 09:06:05;;;;;;;42.75;21.70;;;4.50;99.90;;;;;;5104577;28;20073;-84
2021/03/02 09:08:31;;;;;;;38.45;20.48;;;4.50;99.90;;;;;;5079555;28;20070;-85
2021/03/02 09:11:03;;;;;;;37.65;21.60;;;4.50;99.90;;;;;;5101707;28;20416;-83
2021/03/02 09:13:36;;;;;;;41.13;21.65;;;4.60;99.90;;;;;;5108205;28;20122;-83
2021/03/02 09:16:31;;;;;;;38.70;20.63;;;4.70;99.90;;;;;;5087524;28;20806;-86
2021/03/02 09:19:24;;;;;;;43.15;21.10;;;4.80;99.90;;;;;;5085294;28;20569;-83
2021/03/02 09:21:54;;;;;;;36.33;20.52;;;4.80;99.90;;;;;;5099116;28;20040;-85
2021/03/02 09:24:22;;;;;;;46.80;21.38;;;4.90;99.90;;;;;;5070373;28;20500;-85
2021/03/02 09:27:13;;;;;;;45.15;23.52;;;4.90;99.90;;;;;;5084071;28;20039;-85
2021/03/02 09:29:46;;;;;;;42.65;21.90;;;5.00;99.90;;;;;;5076021;28;20052;-86
2021/03/02 09:32:22;;;;;;;38.65;22.13;;;5.00;99.90;;;;;;5088746;28;20112;-88
2021/03/02 09:34:48;;;;;;;40.25;21.65;;;5.10;99.90;;;;;;5083780;28;20043;-86
2021/03/02 09:37:18;;;;;;;90.10;26.08;;;5.20;99.90;;;;;;5073519;28;20043;-90
2021/03/02 09:39:56;;;;;;;36.13;21.25;;;5.30;99.90;;;;;;5105936;28;20044;-88
2021/03/02 09:42:24;;;;;;;40.70;22.65;;;5.30;99.90;;;;;;5089176;28;20036;-85
2021/03/02 09:44:52;;;;;;;41.70;22.35;;;5.40;99.90;;;;;;5090513;28;20040;-87
2021/03/02 09:47:29;;;;;;;40.15;22.15;;;5.40;99.90;;;;;;5090881;28;20047;-86
2021/03/02 09:49:58;;;;;;;39.95;22.52;;;5.50;99.90;;;;;;5079503;28;20039;-87
2021/03/02 09:52:27;;;;;;;42.53;23.50;;;5.50;99.90;;;;;;5109580;28;20063;-86
2021/03/02 09:55:17;;;;;;;37.35;22.27;;;5.50;99.90;;;;;;5107628;28;20074;-86
2021/03/02 10:00:36;;;;;;;42.80;24.15;;;5.60;99.90;;;;;;5097401;28;20028;-86
2021/03/02 10:03:09;;;;;;;44.38;24.63;;;5.80;99.90;;;;;;5084662;28;20510;-86
2021/03/02 10:05:58;;;;;;;46.90;25.75;;;5.80;99.90;;;;;;5087715;28;20182;-86
2021/03/02 10:08:41;;;;;;;48.17;25.15;;;6.00;99.90;;;;;;5075071;28;20040;-84
2021/03/02 10:11:10;;;;;;;44.55;24.83;;;6.20;99.90;;;;;;5083538;28;20129;-85
2021/03/02 10:13:38;;;;;;;45.88;24.02;;;6.30;99.90;;;;;;5092844;28;20223;-85
2021/03/02 10:16:24;;;;;;;47.10;24.67;;;6.50;99.90;;;;;;5110789;28;20044;-84
2021/03/02 10:18:59;;;;;;;40.45;23.88;;;6.40;99.90;;;;;;5104997;28;20059;-84
2021/03/02 10:21:36;;;;;;;45.72;25.55;;;6.50;99.90;;;;;;5077257;28;20040;-84
2021/03/02 10:24:03;;;;;;;46.75;25.13;;;6.50;99.90;;;;;;5112517;28;20032;-84
2021/03/02 10:26:37;;;;;;;43.83;24.48;;;6.70;99.90;;;;;;5107699;28;20122;-84
2021/03/02 10:29:08;;;;;;;41.85;24.00;;;6.80;99.90;;;;;;5106146;28;20036;-86
2021/03/02 10:31:34;;;;;;;44.90;25.05;;;6.90;99.90;;;;;;5060116;28;20036;-85
2021/03/02 10:34:02;;;;;;;43.97;25.00;;;7.10;99.90;;;;;;5089889;28;20044;-84
2021/03/02 10:36:32;;;;;;;48.22;27.25;;;7.10;99.90;;;;;;5104112;28;20047;-84
2021/03/02 10:38:58;;;;;;;45.38;25.70;;;7.10;99.90;;;;;;5093054;28;20123;-84
2021/03/02 10:41:25;;;;;;;54.60;26.75;;;7.10;99.90;;;;;;5075510;28;20170;-84
2021/03/02 10:43:52;;;;;;;47.30;24.65;;;7.10;99.90;;;;;;5109272;28;20039;-84
2021/03/02 10:46:19;;;;;;;45.38;26.95;;;7.10;99.90;;;;;;5093006;28;20031;-87
2021/03/02 10:48:46;;;;;;;46.35;24.85;;;7.10;99.90;;;;;;5068855;28;20053;-85
2021/03/02 10:51:13;;;;;;;44.15;25.65;;;7.30;99.90;;;;;;5090872;28;20043;-85
2021/03/02 10:53:39;;;;;;;42.85;24.73;;;7.30;99.90;;;;;;5072514;28;20144;-86
2021/03/02 10:56:05;;;;;;;40.95;23.40;;;7.30;99.90;;;;;;5075913;28;20071;-84
2021/03/02 10:58:31;;;;;;;42.38;24.00;;;7.30;99.90;;;;;;5091727;28;20083;-85
2021/03/02 11:00:57;;;;;;;40.33;24.92;;;7.30;99.90;;;;;;5086860;28;20075;-85
2021/03/02 11:03:23;;;;;;;43.15;24.80;;;7.40;99.90;;;;;;5066135;28;20721;-88
2021/03/02 11:05:50;;;;;;;43.65;25.95;;;7.40;99.90;;;;;;5077419;28;20092;-85
2021/03/02 11:08:17;;;;;;;51.78;26.63;;;7.50;99.90;;;;;;5060823;28;20399;-85
2021/03/02 11:10:43;;;;;;;49.72;28.02;;;7.50;99.90;;;;;;5074841;28;20151;-87
2021/03/02 11:13:10;;;;;;;86.10;27.98;;;7.60;99.90;;;;;;5077654;28;20550;-85
2021/03/02 11:15:36;;;;;;;52.75;26.92;;;7.60;99.90;;;;;;5073421;28;20384;-85
2021/03/02 11:18:02;;;;;;;41.75;25.05;;;7.60;99.90;;;;;;5072647;28;20040;-85
2021/03/02 11:20:28;;;;;;;45.00;25.27;;;7.70;99.90;;;;;;5057623;28;20044;-84
2021/03/02 11:22:53;;;;;;;42.45;24.23;;;7.80;99.90;;;;;;5039819;28;20055;-86
2021/03/02 11:25:19;;;;;;;40.58;23.90;;;7.80;99.90;;;;;;5111465;28;20043;-85
2021/03/02 11:27:46;;;;;;;43.72;22.98;;;7.80;99.90;;;;;;5072429;28;20039;-85
2021/03/02 11:30:14;;;;;;;42.40;23.70;;;7.80;99.90;;;;;;5093252;28;20135;-85
2021/03/02 11:32:40;;;;;;;34.28;22.05;;;7.90;99.90;;;;;;5081084;28;20044;-86
2021/03/02 11:35:07;;;;;;;35.75;22.25;;;8.00;99.90;;;;;;5085601;28;20040;-85
2021/03/02 11:37:35;;;;;;;43.08;23.92;;;8.10;99.90;;;;;;5080004;28;20097;-85
2021/03/02 11:40:02;;;;;;;35.85;21.50;;;8.10;99.90;;;;;;5091572;28;20036;-86
2021/03/02 11:42:28;;;;;;;39.72;22.52;;;8.20;99.90;;;;;;5075688;28;20093;-89
2021/03/02 11:44:54;;;;;;;37.55;22.27;;;8.30;99.90;;;;;;5064213;28;20069;-84
2021/03/02 11:47:20;;;;;;;35.53;21.13;;;8.20;99.90;;;;;;5090630;28;20122;-87
2021/03/02 11:49:45;;;;;;;39.85;23.02;;;8.20;99.90;;;;;;5104090;28;20055;-85
2021/03/02 11:52:11;;;;;;;40.80;22.02;;;8.30;99.90;;;;;;5075582;28;20051;-86
2021/03/02 11:54:37;;;;;;;35.50;21.77;;;8.40;99.90;;;;;;5066772;28;20437;-85
2021/03/02 11:57:03;;;;;;;34.63;21.05;;;8.40;99.90;;;;;;5060340;28;20051;-86
2021/03/02 11:59:28;;;;;;;38.65;22.65;;;8.50;99.90;;;;;;5064257;28;20521;-88
2021/03/02 12:01:54;;;;;;;45.38;23.10;;;8.60;99.90;;;;;;5069906;28;20079;-85
2021/03/02 12:04:20;;;;;;;43.85;23.63;;;8.60;99.90;;;;;;5064541;28;20058;-89
2021/03/02 12:06:46;;;;;;;46.38;25.38;;;8.70;99.90;;;;;;5058413;28;20040;-87
2021/03/02 12:09:11;;;;;;;39.80;24.10;;;8.70;99.90;;;;;;5058201;28;20101;-87
2021/03/02 12:11:37;;;;;;;45.63;26.50;;;8.80;99.90;;;;;;5083626;28;20034;-88
2021/03/02 12:14:03;;;;;;;55.83;29.70;;;8.90;99.90;;;;;;5039250;28;20071;-88
2021/03/02 12:16:29;;;;;;;69.68;36.08;;;8.90;99.90;;;;;;5083246;28;20048;-90
2021/03/02 12:18:55;;;;;;;68.90;35.78;;;9.00;99.90;;;;;;5055706;28;20045;-87
2021/03/02 12:21:21;;;;;;;117.28;42.10;;;9.00;99.90;;;;;;5072280;28;20040;-86
2021/03/02 12:23:47;;;;;;;81.70;41.00;;;9.00;99.90;;;;;;5074118;28;20095;-86
2021/03/02 12:26:12;;;;;;;72.65;36.58;;;9.10;99.90;;;;;;5073802;28;20387;-86
2021/03/02 12:28:38;;;;;;;77.50;37.42;;;9.10;99.90;;;;;;5090412;28;20036;-87
2021/03/02 12:31:04;;;;;;;66.32;34.22;;;9.20;99.90;;;;;;5061321;28;20044;-85
2021/03/02 12:33:29;;;;;;;66.05;33.92;;;9.30;99.90;;;;;;5093969;28;20118;-90
2021/03/02 12:35:55;;;;;;;55.33;31.17;;;9.30;99.90;;;;;;5054339;28;20452;-86
2021/03/02 12:38:21;;;;;;;50.70;27.42;;;9.40;99.90;;;;;;5094383;28;20398;-86
2021/03/02 12:40:47;;;;;;;49.90;27.38;;;9.50;99.90;;;;;;5071109;28;20480;-87
2021/03/02 12:43:14;;;;;;;40.20;22.80;;;9.60;99.90;;;;;;5093576;28;20046;-86
2021/03/02 12:45:39;;;;;;;41.55;24.60;;;9.70;99.90;;;;;;5056788;28;20127;-86
2021/03/02 12:48:06;;;;;;;38.65;23.17;;;9.80;99.90;;;;;;5081337;28;20131;-86